Orehovo-Zuevo, Russia
Current Conditions -  °F | °C
As of 10:30 AM on Tuesday 21 Oct 2014 (Local Time) from UUDD Reporting Station
Drizzle Drizzle  
Wind Chill: 30°   Ceiling: 100
Heat Index: 36°   Visibility: 0.43mi
Dew Point: 36°   Wind: 7mph
Humidity: 100%   Direction: 20°NNE
Pressure: 29.29"   Gusts: NA
Location:  55.81°N, 38.98°E
Report Text: UUDD 210730Z 02003MPS 360V060 0700 R32L/1000VP1500U R32R/0700N-DZ FG OVC001 02/02 Q0992 32290095 82290095 TEMPO 0300 FG RMKQBB050
Loading
Personal Weather Stations






























Interactive Weather Map
Tropical Storm Tracking
New forecast layout! Learn more

10-Day Weather Forecast

Advertisements
Track Severe Weather on mobile